Time;durP1;ratioP1;P1;durP2;ratioP2;P2;SDS_P1;SDS_P2;PMS_P1;PMS_P2;Temp;Humidity;BMP_temperature;BMP_pressure;BME280_temperature;BME280_humidity;BME280_pressure;Samples;Min_cycle;Max_cycle;Signal;HPM_P1;HPM_P2
2022/10/05 00:01:25;;;;;;;;;;;;;9.50;98401.80;;;;111102;1247;41515;-60
2022/10/05 00:04:17;;;;;;;;;;;;;9.50;98405.40;;;;111106;1247;41582;-60
2022/10/05 00:06:55;;;;;;;;;;;;;9.50;98411.20;;;;111130;1247;41617;-59
2022/10/05 00:09:24;;;;;;;;;;;;;9.50;98409.60;;;;110851;1249;41740;-59
2022/10/05 00:11:55;;;;;;;;;;;;;9.50;98416.60;;;;110813;1251;41156;-59
2022/10/05 00:14:28;;;;;;;;;;;;;9.50;98413.20;;;;111140;1248;42106;-60
2022/10/05 00:16:58;;;;;;;;;;;;;9.60;98413.80;;;;111089;1247;41215;-60
2022/10/05 00:19:32;;;;;;;;;;;;;9.60;98412.40;;;;111058;1248;41149;-60
2022/10/05 00:22:11;;;;;;;;;;;;;9.60;98416.80;;;;111100;1248;41120;-61
2022/10/05 00:24:40;;;;;;;;;;;;;9.60;98419.60;;;;111046;1249;41139;-60
2022/10/05 00:27:21;;;;;;;;;;;;;9.60;98416.00;;;;110924;1248;41711;-60
2022/10/05 00:29:50;;;;;;;;;;;;;9.60;98414.80;;;;110805;1250;41172;-60
2022/10/05 00:32:17;;;;;;;;;;;;;9.60;98416.80;;;;110708;1250;41611;-60
2022/10/05 00:34:46;;;;;;;;;;;;;9.60;98419.60;;;;110967;1249;41772;-61
2022/10/05 00:37:16;;;;;;;;;;;;;9.60;98416.20;;;;110692;1249;41197;-60
2022/10/05 00:39:46;;;;;;;;;;;;;9.60;98414.80;;;;111127;1249;41262;-60
2022/10/05 00:42:23;;;;;;;;;;;;;9.60;98414.40;;;;111120;1247;41265;-60
2022/10/05 00:44:58;;;;;;;;;;;;;9.60;98409.60;;;;111079;1249;41184;-61
2022/10/05 00:47:31;;;;;;;;;;;;;9.60;98410.80;;;;111040;1247;42134;-61
2022/10/05 00:50:05;;;;;;;;;;;;;9.60;98412.80;;;;110737;1250;41651;-58
2022/10/05 00:52:40;;;;;;;;;;;;;9.60;98416.20;;;;110796;1249;41183;-58
2022/10/05 00:55:18;;;;;;;;;;;;;9.60;98413.40;;;;110715;1249;41894;-59
2022/10/05 00:58:05;;;;;;;;;;;;;9.60;98417.60;;;;110803;1248;42386;-59
2022/10/05 01:00:50;;;;;;;;;;;;;9.60;98420.40;;;;111025;1247;41427;-59
2022/10/05 01:03:25;;;;;;;;;;;;;9.60;98424.20;;;;110986;1249;41730;-59
2022/10/05 01:05:55;;;;;;;;;;;;;9.54;98427.80;;;;111144;1247;42528;-61
2022/10/05 01:08:43;;;;;;;;;;;;;9.50;98425.40;;;;111071;1247;42377;-60
2022/10/05 01:11:18;;;;;;;;;;;;;9.50;98425.20;;;;111106;1247;41578;-61
2022/10/05 01:13:53;;;;;;;;;;;;;9.50;98429.00;;;;111009;1248;41133;-61
2022/10/05 01:16:34;;;;;;;;;;;;;9.50;98438.60;;;;111175;1248;41142;-61
2022/10/05 01:19:27;;;;;;;;;;;;;9.50;98434.80;;;;110889;1247;42256;-61
2022/10/05 01:22:21;;;;;;;;;;;;;9.50;98439.60;;;;111164;1247;42221;-61
2022/10/05 01:25:09;;;;;;;;;;;;;9.50;98446.00;;;;110727;1249;41906;-60
2022/10/05 01:27:46;;;;;;;;;;;;;9.50;98450.40;;;;111071;1247;42368;-60
2022/10/05 01:30:15;;;;;;;;;;;;;9.50;98450.60;;;;111062;1248;42218;-61
2022/10/05 01:32:56;;;;;;;;;;;;;9.50;98453.40;;;;111094;1247;42077;-61
2022/10/05 01:35:45;;;;;;;;;;;;;9.50;98461.20;;;;111098;1249;42435;-60
2022/10/05 01:38:23;;;;;;;;;;;;;9.42;98463.80;;;;110961;1248;41904;-60
2022/10/05 01:40:58;;;;;;;;;;;;;9.40;98466.60;;;;111154;1247;41900;-60
2022/10/05 01:43:51;;;;;;;;;;;;;9.46;98468.00;;;;111088;1248;41270;-61
2022/10/05 01:46:23;;;;;;;;;;;;;9.42;98472.80;;;;111098;1247;41600;-60
2022/10/05 01:48:58;;;;;;;;;;;;;9.40;98478.40;;;;111123;1248;42086;-61
2022/10/05 01:51:39;;;;;;;;;;;;;9.34;98483.00;;;;110870;1249;41934;-61
2022/10/05 01:54:24;;;;;;;;;;;;;9.30;98479.80;;;;111080;1247;41189;-60
2022/10/05 01:57:08;;;;;;;;;;;;;9.30;98476.00;;;;111030;1249;41170;-60
2022/10/05 01:59:57;;;;;;;;;;;;;9.30;98479.00;;;;110728;1249;42391;-60
2022/10/05 02:02:28;;;;;;;;;;;;;9.40;98478.60;;;;110973;1249;41278;-60
2022/10/05 02:05:03;;;;;;;;;;;;;9.40;98481.80;;;;111153;1247;41199;-60
2022/10/05 02:07:57;;;;;;;;;;;;;9.40;98479.80;;;;110735;1249;41141;-60
2022/10/05 02:10:30;;;;;;;;;;;;;9.40;98468.00;;;;110978;1248;41146;-60
2022/10/05 02:13:09;;;;;;;;;;;;;9.30;98460.40;;;;110693;1249;41417;-61
2022/10/05 02:15:40;;;;;;;;;;;;;9.30;98460.40;;;;110732;1249;41255;-61
2022/10/05 02:18:12;;;;;;;;;;;;;9.20;98461.60;;;;111068;1248;41153;-61
2022/10/05 02:20:40;;;;;;;;;;;;;9.10;98465.60;;;;111102;1248;41154;-61
2022/10/05 02:23:19;;;;;;;;;;;;;9.10;98467.60;;;;110734;1248;41178;-60
2022/10/05 02:25:48;;;;;;;;;;;;;9.10;98469.40;;;;110716;1250;42181;-61
2022/10/05 02:28:22;;;;;;;;;;;;;9.06;98471.60;;;;110769;1249;42505;-61
2022/10/05 02:30:57;;;;;;;;;;;;;9.00;98469.60;;;;110778;1249;41178;-60
2022/10/05 02:33:28;;;;;;;;;;;;;9.00;98474.40;;;;110815;1249;41260;-60
2022/10/05 02:36:07;;;;;;;;;;;;;9.00;98478.40;;;;111090;1249;41282;-61
2022/10/05 02:38:39;;;;;;;;;;;;;8.90;98480.20;;;;111066;1247;42845;-61
2022/10/05 02:41:14;;;;;;;;;;;;;8.90;98476.20;;;;110929;1249;41149;-61
2022/10/05 02:43:58;;;;;;;;;;;;;8.84;98478.20;;;;111151;1247;41150;-60
2022/10/05 02:46:46;;;;;;;;;;;;;8.80;98473.40;;;;110985;1249;41914;-61
2022/10/05 02:49:25;;;;;;;;;;;;;8.80;98478.80;;;;110758;1249;41162;-60
2022/10/05 02:52:12;;;;;;;;;;;;;8.70;98485.00;;;;110613;1249;41522;-60
2022/10/05 02:54:46;;;;;;;;;;;;;8.68;98490.00;;;;110660;1249;41155;-60
2022/10/05 02:57:15;;;;;;;;;;;;;8.60;98497.80;;;;111084;1249;41146;-60
2022/10/05 02:59:47;;;;;;;;;;;;;8.60;98497.40;;;;111038;1248;41149;-60
2022/10/05 03:02:22;;;;;;;;;;;;;8.56;98503.80;;;;111151;1247;42402;-61
2022/10/05 03:05:15;;;;;;;;;;;;;8.50;98506.20;;;;111178;1247;42018;-60
2022/10/05 03:07:55;;;;;;;;;;;;;8.50;98509.40;;;;111033;1247;41165;-60
2022/10/05 03:10:28;;;;;;;;;;;;;8.50;98513.00;;;;110746;1249;41134;-60
2022/10/05 03:13:08;;;;;;;;;;;;;8.50;98505.60;;;;111035;1247;41121;-60
2022/10/05 03:15:53;;;;;;;;;;;;;8.50;98508.40;;;;110762;1250;41715;-60
2022/10/05 03:18:40;;;;;;;;;;;;;8.58;98503.40;;;;111180;1247;41163;-60
2022/10/05 03:21:23;;;;;;;;;;;;;8.60;98514.80;;;;111079;1247;41170;-60
2022/10/05 03:24:09;;;;;;;;;;;;;8.60;98506.60;;;;111036;1247;41138;-61
2022/10/05 03:26:37;;;;;;;;;;;;;8.60;98510.60;;;;111000;1247;41156;-61
2022/10/05 03:29:13;;;;;;;;;;;;;8.64;98510.40;;;;111023;1249;41145;-61
2022/10/05 03:31:44;;;;;;;;;;;;;8.70;98512.80;;;;111273;1248;41130;-58
2022/10/05 03:34:17;;;;;;;;;;;;;8.70;98518.00;;;;110868;1249;41173;-60
2022/10/05 03:36:46;;;;;;;;;;;;;8.70;98517.80;;;;111305;1247;41120;-60
2022/10/05 03:39:33;;;;;;;;;;;;;8.70;98521.00;;;;111204;1247;41160;-60
2022/10/05 03:42:22;;;;;;;;;;;;;8.70;98524.40;;;;111179;1247;41145;-60
2022/10/05 03:45:19;;;;;;;;;;;;;8.70;98519.40;;;;111260;1249;41370;-60
2022/10/05 03:47:54;;;;;;;;;;;;;8.70;98515.20;;;;111034;1249;41296;-60
2022/10/05 03:50:47;;;;;;;;;;;;;8.60;98521.00;;;;111043;1248;41197;-61
2022/10/05 03:53:15;;;;;;;;;;;;;8.50;98527.80;;;;111208;1246;42838;-61
2022/10/05 03:56:02;;;;;;;;;;;;;8.50;98529.40;;;;111268;1248;41155;-60
2022/10/05 03:58:35;;;;;;;;;;;;;8.50;98534.00;;;;111135;1249;42042;-60
2022/10/05 04:01:42;;;;;;;;;;;;;8.50;98539.80;;;;111222;1247;41248;-61
2022/10/05 04:04:13;;;;;;;;;;;;;8.52;98544.60;;;;111168;1248;41146;-60
2022/10/05 04:06:42;;;;;;;;;;;;;8.58;98551.60;;;;111141;1247;41718;-60
2022/10/05 04:09:13;;;;;;;;;;;;;8.50;98551.00;;;;110717;1249;41239;-60
2022/10/05 04:11:44;;;;;;;;;;;;;8.50;98554.80;;;;111159;1249;41585;-60
2022/10/05 04:14:32;;;;;;;;;;;;;8.50;98557.80;;;;111042;1247;41160;-61
2022/10/05 04:17:06;;;;;;;;;;;;;8.50;98561.00;;;;111066;1250;41161;-59
2022/10/05 04:19:53;;;;;;;;;;;;;8.50;98559.40;;;;110940;1250;41954;-59
2022/10/05 04:22:35;;;;;;;;;;;;;8.54;98560.80;;;;110958;1249;41954;-59
2022/10/05 04:25:29;;;;;;;;;;;;;8.58;98567.00;;;;111099;1247;41190;-59
2022/10/05 04:28:13;;;;;;;;;;;;;8.60;98569.40;;;;111089;1248;42044;-59
2022/10/05 04:30:43;;;;;;;;;;;;;8.60;98573.20;;;;111005;1248;41131;-59
2022/10/05 04:33:14;;;;;;;;;;;;;8.60;98579.80;;;;110790;1249;41443;-60
2022/10/05 04:36:01;;;;;;;;;;;;;8.60;98577.80;;;;111012;1249;41149;-59
2022/10/05 04:38:55;;;;;;;;;;;;;8.60;98585.80;;;;111075;1249;41256;-59
2022/10/05 04:41:38;;;;;;;;;;;;;8.60;98589.40;;;;111135;1248;42400;-59
2022/10/05 04:44:16;;;;;;;;;;;;;8.60;98594.20;;;;111177;1249;41174;-59
2022/10/05 04:47:02;;;;;;;;;;;;;8.60;98599.20;;;;111241;1248;42460;-59
2022/10/05 04:49:37;;;;;;;;;;;;;8.50;98593.60;;;;111261;1247;41153;-59
2022/10/05 04:52:24;;;;;;;;;;;;;8.50;98598.00;;;;111492;1248;41153;-59
2022/10/05 04:55:12;;;;;;;;;;;;;8.50;98606.60;;;;111033;1247;41135;-59
2022/10/05 04:57:40;;;;;;;;;;;;;8.50;98610.80;;;;110800;1249;41586;-59
2022/10/05 05:00:08;;;;;;;;;;;;;8.50;98611.00;;;;111026;1249;42096;-59
2022/10/05 05:02:49;;;;;;;;;;;;;8.50;98617.40;;;;110918;1250;41142;-59
2022/10/05 05:05:31;;;;;;;;;;;;;8.40;98616.00;;;;111103;1247;41245;-59
2022/10/05 05:07:58;;;;;;;;;;;;;8.30;98615.00;;;;111195;1249;41912;-59
2022/10/05 05:10:44;;;;;;;;;;;;;8.30;98617.60;;;;111190;1247;41261;-60
2022/10/05 05:13:26;;;;;;;;;;;;;8.30;98618.60;;;;111105;1248;41622;-59
2022/10/05 05:15:56;;;;;;;;;;;;;8.34;98626.20;;;;110758;1248;41266;-59
2022/10/05 05:18:42;;;;;;;;;;;;;8.36;98626.80;;;;111253;1248;41744;-59
2022/10/05 05:21:20;;;;;;;;;;;;;8.30;98631.40;;;;111073;1249;40991;-58
2022/10/05 05:23:51;;;;;;;;;;;;;8.30;98636.60;;;;111106;1249;41202;-59
2022/10/05 05:26:34;;;;;;;;;;;;;8.32;98637.40;;;;111134;1247;41147;-59
2022/10/05 05:29:15;;;;;;;;;;;;;8.40;98637.60;;;;111206;1246;41237;-59
2022/10/05 05:31:44;;;;;;;;;;;;;8.38;98637.60;;;;111113;1249;42298;-59
2022/10/05 05:34:31;;;;;;;;;;;;;8.30;98633.80;;;;111150;1245;41257;-59
2022/10/05 05:37:01;;;;;;;;;;;;;8.30;98638.00;;;;111025;1248;41190;-59
2022/10/05 05:39:33;;;;;;;;;;;;;8.32;98641.40;;;;110744;1249;423095;-59
2022/10/05 05:42:09;;;;;;;;;;;;;8.40;98643.80;;;;110979;1249;41264;-59
2022/10/05 05:44:40;;;;;;;;;;;;;8.40;98642.40;;;;111137;1249;41990;-59
2022/10/05 05:47:22;;;;;;;;;;;;;8.40;98638.00;;;;110866;1249;41352;-59
2022/10/05 05:49:59;;;;;;;;;;;;;8.50;98643.40;;;;110901;1250;41156;-59
2022/10/05 05:52:38;;;;;;;;;;;;;8.50;98648.40;;;;110921;1249;41164;-60
2022/10/05 05:55:07;;;;;;;;;;;;;8.50;98651.60;;;;111167;1248;41260;-59
2022/10/05 05:57:39;;;;;;;;;;;;;8.60;98657.60;;;;111036;1250;41261;-59
2022/10/05 06:00:30;;;;;;;;;;;;;8.60;98654.40;;;;111059;1248;41131;-59
2022/10/05 06:02:58;;;;;;;;;;;;;8.50;98661.60;;;;111075;1248;41876;-59
2022/10/05 06:05:27;;;;;;;;;;;;;8.50;98675.60;;;;111125;1249;41270;-59
2022/10/05 06:07:56;;;;;;;;;;;;;8.60;98675.00;;;;111143;1248;41175;-59
2022/10/05 06:10:23;;;;;;;;;;;;;8.70;98681.60;;;;111115;1249;41511;-59
2022/10/05 06:13:02;;;;;;;;;;;;;8.80;98680.80;;;;110777;1250;41826;-59
2022/10/05 06:15:42;;;;;;;;;;;;;8.90;98680.40;;;;110855;1249;41767;-59
2022/10/05 06:18:10;;;;;;;;;;;;;8.96;98684.40;;;;111064;1250;41159;-59
2022/10/05 06:20:39;;;;;;;;;;;;;9.00;98682.20;;;;110941;1250;41613;-60
2022/10/05 06:23:11;;;;;;;;;;;;;9.18;98690.60;;;;111102;1248;41155;-60
2022/10/05 06:25:43;;;;;;;;;;;;;9.24;98687.20;;;;111192;1249;41155;-59
2022/10/05 06:28:11;;;;;;;;;;;;;9.30;98698.80;;;;111058;1249;41255;-59
2022/10/05 06:31:06;;;;;;;;;;;;;9.40;98700.40;;;;110994;1249;41125;-59
2022/10/05 06:33:44;;;;;;;;;;;;;9.38;98698.40;;;;111078;1247;42148;-59
2022/10/05 06:36:26;;;;;;;;;;;;;9.40;98699.40;;;;110992;1249;42389;-59
2022/10/05 06:39:12;;;;;;;;;;;;;9.40;98696.00;;;;110793;1250;42262;-59
2022/10/05 06:41:52;;;;;;;;;;;;;9.44;98705.60;;;;111049;1249;41258;-59
2022/10/05 06:44:19;;;;;;;;;;;;;9.50;98709.00;;;;110757;1250;41143;-59
2022/10/05 06:47:16;;;;;;;;;;;;;9.56;98710.40;;;;110708;1249;41607;-59
2022/10/05 06:50:07;;;;;;;;;;;;;9.70;98716.40;;;;111130;1249;41160;-60
2022/10/05 06:53:16;;;;;;;;;;;;;9.90;98720.00;;;;111091;1249;41975;-58
2022/10/05 06:56:10;;;;;;;;;;;;;10.10;98725.40;;;;110990;1247;41724;-59
2022/10/05 06:58:40;;;;;;;;;;;;;10.28;98726.40;;;;110992;1249;41218;-60
2022/10/05 07:01:18;;;;;;;;;;;;;10.42;98724.60;;;;111131;1248;42152;-59
2022/10/05 07:03:50;;;;;;;;;;;;;10.60;98725.60;;;;111068;1249;41143;-59
2022/10/05 07:06:24;;;;;;;;;;;;;10.80;98727.60;;;;111096;1248;41190;-59
2022/10/05 07:09:14;;;;;;;;;;;;;10.90;98725.00;;;;111113;1248;41166;-59
2022/10/05 07:11:42;;;;;;;;;;;;;10.94;98721.80;;;;111075;1247;41589;-59
2022/10/05 07:14:13;;;;;;;;;;;;;11.00;98722.80;;;;110766;1250;42237;-59
2022/10/05 07:16:41;;;;;;;;;;;;;10.90;98728.60;;;;111101;1249;41628;-60
2022/10/05 07:19:09;;;;;;;;;;;;;10.80;98729.40;;;;111062;1249;41281;-59
2022/10/05 07:21:44;;;;;;;;;;;;;10.80;98732.00;;;;111108;1248;41138;-59
2022/10/05 07:24:28;;;;;;;;;;;;;10.86;98733.00;;;;111022;1249;41252;-59
2022/10/05 07:26:56;;;;;;;;;;;;;10.94;98734.60;;;;110712;1250;41284;-59
2022/10/05 07:29:43;;;;;;;;;;;;;10.92;98738.00;;;;110706;1250;41268;-59
2022/10/05 07:32:13;;;;;;;;;;;;;11.00;98739.60;;;;111090;1248;42523;-59
2022/10/05 07:34:44;;;;;;;;;;;;;11.04;98741.40;;;;111154;1248;41264;-59
2022/10/05 07:40:01;;;;;;;;;;;;;11.28;98746.60;;;;111046;1247;42325;-59
2022/10/05 07:42:40;;;;;;;;;;;;;11.40;98748.80;;;;110777;1250;41714;-59
2022/10/05 07:45:24;;;;;;;;;;;;;11.40;98747.00;;;;111150;1247;41146;-59
2022/10/05 07:47:53;;;;;;;;;;;;;11.40;98745.00;;;;111141;1248;41622;-57
2022/10/05 07:50:33;;;;;;;;;;;;;11.42;98750.00;;;;111056;1249;41592;-59
2022/10/05 07:53:02;;;;;;;;;;;;;11.40;98745.60;;;;111228;1248;41135;-57
2022/10/05 07:56:04;;;;;;;;;;;;;11.50;98748.80;;;;111019;1250;41705;-59
2022/10/05 07:58:46;;;;;;;;;;;;;11.70;98749.20;;;;110528;1254;41389;-60
2022/10/05 08:01:20;;;;;;;;;;;;;11.80;98747.00;;;;111004;1250;42039;-60
2022/10/05 08:03:52;;;;;;;;;;;;;12.18;98741.20;;;;111155;1247;41571;-58
2022/10/05 08:06:26;;;;;;;;;;;;;12.32;98741.20;;;;110998;1249;42323;-59
2022/10/05 08:08:53;;;;;;;;;;;;;12.40;98741.60;;;;110996;1250;41139;-59
2022/10/05 08:11:24;;;;;;;;;;;;;12.40;98741.80;;;;111143;1248;41131;-59
2022/10/05 08:13:53;;;;;;;;;;;;;12.42;98737.20;;;;111077;1249;41138;-59
2022/10/05 08:16:20;;;;;;;;;;;;;12.60;98737.00;;;;111109;1248;41150;-59
2022/10/05 08:18:49;;;;;;;;;;;;;12.80;98732.20;;;;111003;1248;41614;-59
2022/10/05 08:21:16;;;;;;;;;;;;;13.00;98732.80;;;;111069;1247;41262;-59
2022/10/05 08:23:49;;;;;;;;;;;;;13.24;98730.40;;;;111193;1248;41169;-59
2022/10/05 08:26:24;;;;;;;;;;;;;13.40;98730.20;;;;111061;1250;41137;-59
2022/10/05 08:28:58;;;;;;;;;;;;;13.60;98719.20;;;;111126;1249;41539;-59
2022/10/05 08:31:26;;;;;;;;;;;;;13.90;98714.80;;;;111202;1247;41609;-59
2022/10/05 08:33:55;;;;;;;;;;;;;14.24;98718.40;;;;111168;1246;41528;-59
2022/10/05 08:36:27;;;;;;;;;;;;;14.50;98716.00;;;;111176;1247;41301;-59
2022/10/05 08:38:55;;;;;;;;;;;;;14.80;98720.00;;;;110924;1248;41610;-59
2022/10/05 08:41:32;;;;;;;;;;;;;15.00;98724.60;;;;111079;1249;41246;-59
2022/10/05 08:44:17;;;;;;;;;;;;;15.44;98721.80;;;;111072;1248;41145;-59
2022/10/05 08:46:59;;;;;;;;;;;;;15.98;98718.60;;;;111094;1248;41311;-59
2022/10/05 08:49:36;;;;;;;;;;;;;16.54;98711.80;;;;111094;1248;42117;-59
2022/10/05 08:52:12;;;;;;;;;;;;;17.04;98710.20;;;;111048;1249;41118;-59
2022/10/05 08:54:46;;;;;;;;;;;;;17.44;98700.80;;;;111011;1248;41249;-59
2022/10/05 08:57:27;;;;;;;;;;;;;17.90;98704.60;;;;110976;1248;41276;-59
2022/10/05 08:59:54;;;;;;;;;;;;;18.16;98700.60;;;;111103;1248;41157;-59
2022/10/05 09:02:36;;;;;;;;;;;;;18.40;98711.20;;;;111072;1250;41185;-59
2022/10/05 09:05:14;;;;;;;;;;;;;18.22;98722.20;;;;111029;1249;41140;-59
2022/10/05 09:07:59;;;;;;;;;;;;;18.44;98721.20;;;;110823;1250;41307;-59
2022/10/05 09:10:38;;;;;;;;;;;;;18.70;98726.20;;;;111016;1248;41132;-59
2022/10/05 09:13:24;;;;;;;;;;;;;18.50;98733.60;;;;111043;1249;41136;-60
2022/10/05 09:16:08;;;;;;;;;;;;;18.04;98744.00;;;;111034;1247;41154;-60
2022/10/05 09:18:41;;;;;;;;;;;;;17.78;98745.40;;;;111069;1248;42541;-61
2022/10/05 09:21:28;;;;;;;;;;;;;17.90;98751.00;;;;111160;1248;41255;-60
2022/10/05 09:24:25;;;;;;;;;;;;;18.60;98754.20;;;;111076;1248;41608;-59
2022/10/05 09:26:52;;;;;;;;;;;;;18.70;98747.00;;;;110588;1250;41278;-60
2022/10/05 09:29:22;;;;;;;;;;;;;19.24;98759.60;;;;110997;1250;41182;-59
2022/10/05 09:31:57;;;;;;;;;;;;;20.22;98750.40;;;;111147;1248;41545;-59
2022/10/05 09:34:27;;;;;;;;;;;;;21.18;98754.60;;;;111075;1249;41623;-59
2022/10/05 09:37:07;;;;;;;;;;;;;21.30;98755.00;;;;111111;1249;41143;-59
2022/10/05 09:39:53;;;;;;;;;;;;;21.10;98758.80;;;;111142;1248;41251;-59
2022/10/05 09:42:26;;;;;;;;;;;;;20.96;98755.80;;;;111041;1250;41616;-59
2022/10/05 09:45:05;;;;;;;;;;;;;20.90;98754.00;;;;111012;1249;41737;-60
2022/10/05 09:47:51;;;;;;;;;;;;;21.22;98749.40;;;;111076;1247;41245;-59
2022/10/05 09:50:24;;;;;;;;;;;;;21.90;98753.20;;;;111081;1250;41216;-59
2022/10/05 09:53:10;;;;;;;;;;;;;21.34;98751.40;;;;111088;1249;41144;-59
2022/10/05 09:55:38;;;;;;;;;;;;;21.10;98756.40;;;;111005;1247;41589;-59
2022/10/05 09:58:11;;;;;;;;;;;;;21.20;98751.80;;;;111025;1249;42568;-59
2022/10/05 10:00:39;;;;;;;;;;;;;21.30;98753.80;;;;110855;1251;41508;-59
2022/10/05 10:03:25;;;;;;;;;;;;;21.58;98747.20;;;;111097;1248;41662;-59
2022/10/05 10:05:58;;;;;;;;;;;;;21.86;98744.80;;;;110983;1248;42489;-59
2022/10/05 10:08:31;;;;;;;;;;;;;22.00;98739.80;;;;110981;1248;41596;-59
2022/10/05 10:11:17;;;;;;;;;;;;;23.02;98726.40;;;;110997;1249;41621;-60
2022/10/05 10:13:45;;;;;;;;;;;;;24.40;98721.00;;;;111147;1247;42785;-59
2022/10/05 10:16:22;;;;;;;;;;;;;25.34;98718.20;;;;111188;1248;41258;-60
2022/10/05 10:18:50;;;;;;;;;;;;;26.04;98718.20;;;;111204;1247;41843;-60
2022/10/05 10:21:17;;;;;;;;;;;;;26.80;98712.60;;;;111219;1247;41190;-60
2022/10/05 10:23:50;;;;;;;;;;;;;27.10;98714.00;;;;111275;1247;41252;-60
2022/10/05 10:26:17;;;;;;;;;;;;;27.70;98708.40;;;;111207;1248;41719;-60
2022/10/05 10:28:53;;;;;;;;;;;;;28.30;98710.80;;;;111101;1249;41151;-60
2022/10/05 10:31:25;;;;;;;;;;;;;29.16;98706.60;;;;111133;1250;41400;-60
2022/10/05 10:33:52;;;;;;;;;;;;;30.16;98698.40;;;;110906;1249;42119;-61
2022/10/05 10:36:38;;;;;;;;;;;;;30.94;98698.80;;;;111010;1250;41599;-60
2022/10/05 10:39:16;;;;;;;;;;;;;31.60;98688.20;;;;110713;1250;41713;-60
2022/10/05 10:41:58;;;;;;;;;;;;;31.98;98700.80;;;;110651;1250;41137;-60
2022/10/05 10:44:38;;;;;;;;;;;;;31.22;98698.00;;;;110700;1250;41148;-60
2022/10/05 10:47:12;;;;;;;;;;;;;30.12;98682.20;;;;110821;1250;41607;-60
2022/10/05 10:49:39;;;;;;;;;;;;;29.84;98696.60;;;;111022;1248;41151;-59
2022/10/05 10:52:06;;;;;;;;;;;;;29.24;98699.20;;;;110747;1251;41753;-59
2022/10/05 10:54:45;;;;;;;;;;;;;27.40;98691.20;;;;110734;1248;41189;-59
2022/10/05 10:57:13;;;;;;;;;;;;;27.12;98671.80;;;;110936;1249;41141;-59
2022/10/05 10:59:47;;;;;;;;;;;;;27.32;98665.00;;;;111124;1248;41267;-59
2022/10/05 11:02:14;;;;;;;;;;;;;27.70;98663.80;;;;111037;1248;41974;-60
2022/10/05 11:04:41;;;;;;;;;;;;;28.26;98666.80;;;;111052;1249;41649;-60
2022/10/05 11:07:11;;;;;;;;;;;;;28.68;98671.20;;;;111194;1248;41150;-60
2022/10/05 11:09:39;;;;;;;;;;;;;28.50;98670.60;;;;111026;1250;41599;-60
2022/10/05 11:12:24;;;;;;;;;;;;;27.82;98660.80;;;;111102;1248;41189;-60
2022/10/05 11:14:54;;;;;;;;;;;;;27.86;98648.00;;;;111127;1247;41267;-60
2022/10/05 11:17:36;;;;;;;;;;;;;29.02;98657.60;;;;111122;1247;42402;-60
2022/10/05 11:20:15;;;;;;;;;;;;;29.10;98653.40;;;;111115;1249;41141;-60
2022/10/05 11:22:45;;;;;;;;;;;;;29.10;98670.60;;;;111095;1248;41191;-60
2022/10/05 11:25:31;;;;;;;;;;;;;28.74;98669.40;;;;110959;1249;41576;-60
2022/10/05 11:27:59;;;;;;;;;;;;;27.86;98671.00;;;;111089;1249;41196;-60
2022/10/05 11:30:29;;;;;;;;;;;;;27.02;98674.80;;;;111197;1248;41139;-60
2022/10/05 11:33:15;;;;;;;;;;;;;26.40;98676.00;;;;111144;1248;41589;-60
2022/10/05 11:35:50;;;;;;;;;;;;;25.88;98676.60;;;;110998;1248;41262;-60
2022/10/05 11:38:30;;;;;;;;;;;;;25.36;98670.20;;;;111053;1249;41184;-60
2022/10/05 11:41:10;;;;;;;;;;;;;24.98;98667.00;;;;111048;1247;41141;-60
2022/10/05 11:44:14;;;;;;;;;;;;;24.80;98670.00;;;;111094;1248;41629;-61
2022/10/05 11:46:41;;;;;;;;;;;;;24.50;98664.40;;;;110314;1254;41413;-60
2022/10/05 11:49:17;;;;;;;;;;;;;24.22;98663.20;;;;111097;1248;41527;-60
2022/10/05 11:52:05;;;;;;;;;;;;;23.94;98665.80;;;;111197;1247;41472;-59
2022/10/05 11:54:36;;;;;;;;;;;;;23.60;98666.20;;;;110974;1247;42414;-60
2022/10/05 11:57:32;;;;;;;;;;;;;23.24;98671.40;;;;111357;1247;41466;-60
2022/10/05 12:00:11;;;;;;;;;;;;;22.92;98667.20;;;;111256;1247;41185;-59
2022/10/05 12:02:51;;;;;;;;;;;;;23.00;98665.60;;;;111128;1248;41505;-59
2022/10/05 12:05:21;;;;;;;;;;;;;23.68;98664.60;;;;110913;1250;41866;-59
2022/10/05 12:08:04;;;;;;;;;;;;;23.92;98661.00;;;;111159;1248;41144;-60
2022/10/05 12:10:43;;;;;;;;;;;;;23.80;98667.00;;;;111183;1247;41612;-60
2022/10/05 12:13:10;;;;;;;;;;;;;23.60;98664.00;;;;110890;1250;41909;-60
2022/10/05 12:15:49;;;;;;;;;;;;;23.40;98668.80;;;;111019;1248;42377;-60
2022/10/05 12:18:38;;;;;;;;;;;;;23.20;98667.00;;;;110758;1250;42335;-60
2022/10/05 12:21:05;;;;;;;;;;;;;23.04;98646.80;;;;110854;1250;41492;-60
2022/10/05 12:23:36;;;;;;;;;;;;;23.94;98638.00;;;;111047;1249;41146;-59
2022/10/05 12:26:09;;;;;;;;;;;;;25.38;98635.60;;;;111091;1247;41636;-59
2022/10/05 12:28:38;;;;;;;;;;;;;26.66;98640.60;;;;111143;1247;42437;-59
2022/10/05 12:31:15;;;;;;;;;;;;;27.86;98636.00;;;;111255;1247;41517;-59
2022/10/05 12:33:42;;;;;;;;;;;;;29.18;98636.00;;;;111116;1247;41263;-59
2022/10/05 12:36:27;;;;;;;;;;;;;29.70;98647.00;;;;111135;1248;41550;-59
2022/10/05 12:39:08;;;;;;;;;;;;;29.52;98643.20;;;;111102;1247;41909;-59
2022/10/05 12:41:47;;;;;;;;;;;;;29.20;98649.60;;;;111095;1247;41237;-59
2022/10/05 12:44:17;;;;;;;;;;;;;28.50;98656.80;;;;111254;1247;41152;-59
2022/10/05 12:46:48;;;;;;;;;;;;;27.80;98658.40;;;;110861;1251;41147;-59
2022/10/05 12:49:17;;;;;;;;;;;;;27.02;98659.80;;;;110830;1250;41946;-59
2022/10/05 12:52:01;;;;;;;;;;;;;26.32;98664.60;;;;111279;1248;41297;-59
2022/10/05 12:54:46;;;;;;;;;;;;;25.58;98663.60;;;;111111;1247;41624;-59
2022/10/05 12:57:28;;;;;;;;;;;;;25.00;98668.20;;;;111162;1247;41226;-58
2022/10/05 13:00:15;;;;;;;;;;;;;24.70;98666.20;;;;111137;1248;40893;-59
2022/10/05 13:02:47;;;;;;;;;;;;;24.60;98670.00;;;;111006;1249;41141;-58
2022/10/05 13:05:14;;;;;;;;;;;;;24.32;98670.60;;;;111229;1248;41527;-59
2022/10/05 13:07:53;;;;;;;;;;;;;23.88;98671.20;;;;111113;1250;42566;-58
2022/10/05 13:10:39;;;;;;;;;;;;;22.86;98673.80;;;;111054;1247;41269;-59
2022/10/05 13:13:09;;;;;;;;;;;;;21.52;98674.40;;;;111050;1247;41156;-59
2022/10/05 13:15:39;;;;;;;;;;;;;21.20;98679.40;;;;111052;1247;41282;-59
2022/10/05 13:18:12;;;;;;;;;;;;;21.00;98680.20;;;;111008;1248;41900;-59
2022/10/05 13:20:48;;;;;;;;;;;;;20.90;98677.40;;;;111091;1247;41296;-59
2022/10/05 13:23:16;;;;;;;;;;;;;20.90;98684.40;;;;111133;1248;41130;-59
2022/10/05 13:26:06;;;;;;;;;;;;;20.90;98680.40;;;;111172;1247;41217;-59
2022/10/05 13:28:39;;;;;;;;;;;;;21.00;98675.60;;;;111057;1249;42197;-59
2022/10/05 13:31:26;;;;;;;;;;;;;20.90;98669.80;;;;110707;1247;41604;-59
2022/10/05 13:34:06;;;;;;;;;;;;;20.90;98666.60;;;;111035;1248;41274;-59
2022/10/05 13:36:39;;;;;;;;;;;;;20.90;98670.00;;;;111151;1248;41662;-59
2022/10/05 13:39:14;;;;;;;;;;;;;20.90;98664.20;;;;110784;1250;41360;-59
2022/10/05 13:41:42;;;;;;;;;;;;;21.08;98653.40;;;;111130;1248;41313;-60
2022/10/05 13:44:28;;;;;;;;;;;;;21.58;98652.60;;;;110922;1250;42141;-60
2022/10/05 13:47:08;;;;;;;;;;;;;21.80;98656.40;;;;110816;1248;42234;-60
2022/10/05 13:49:40;;;;;;;;;;;;;22.00;98646.60;;;;110961;1248;41272;-58
2022/10/05 13:52:07;;;;;;;;;;;;;22.74;98647.40;;;;111102;1247;41144;-58
2022/10/05 13:55:00;;;;;;;;;;;;;23.00;98645.40;;;;110812;1251;41601;-58
2022/10/05 13:57:30;;;;;;;;;;;;;22.46;98642.40;;;;110901;1250;41669;-59
2022/10/05 14:00:00;;;;;;;;;;;;;22.06;98645.60;;;;110929;1248;41135;-59
2022/10/05 14:02:35;;;;;;;;;;;;;21.90;98637.80;;;;110965;1247;41518;-59
2022/10/05 14:05:13;;;;;;;;;;;;;22.10;98635.80;;;;111157;1247;41151;-60
2022/10/05 14:07:59;;;;;;;;;;;;;22.22;98634.60;;;;111102;1247;41138;-60
2022/10/05 14:10:32;;;;;;;;;;;;;22.22;98634.60;;;;111140;1248;41249;-60
2022/10/05 14:13:00;;;;;;;;;;;;;22.20;98638.80;;;;111094;1247;41569;-59
2022/10/05 14:15:27;;;;;;;;;;;;;22.28;98640.80;;;;111232;1247;41974;-60
2022/10/05 14:17:54;;;;;;;;;;;;;22.20;98641.60;;;;111150;1247;41249;-60
2022/10/05 14:20:35;;;;;;;;;;;;;22.10;98637.40;;;;111115;1247;41514;-60
2022/10/05 14:23:14;;;;;;;;;;;;;21.80;98638.80;;;;111203;1247;41171;-60
2022/10/05 14:25:52;;;;;;;;;;;;;21.70;98642.00;;;;110775;1248;41596;-60
2022/10/05 14:28:22;;;;;;;;;;;;;21.60;98640.80;;;;111122;1249;41273;-60
2022/10/05 14:30:57;;;;;;;;;;;;;21.60;98642.20;;;;111126;1247;41152;-60